sensor_id;sensor_type;location;lat;lon;timestamp;P1;durP1;ratioP1;P2;durP2;ratioP2
77220;SDS011;66217;50.004;8.266;2022-12-19T00:00:16;52.13;;;20.02;;
77220;SDS011;66217;50.004;8.266;2022-12-19T00:02:42;53.28;;;20.58;;
77220;SDS011;66217;50.004;8.266;2022-12-19T00:05:07;42.95;;;18.60;;
77220;SDS011;66217;50.004;8.266;2022-12-19T00:07:33;48.72;;;22.55;;
77220;SDS011;66217;50.004;8.266;2022-12-19T00:09:58;41.95;;;17.80;;
77220;SDS011;66217;50.004;8.266;2022-12-19T00:12:24;40.42;;;17.13;;
77220;SDS011;66217;50.004;8.266;2022-12-19T00:14:49;44.88;;;16.25;;
77220;SDS011;66217;50.004;8.266;2022-12-19T00:17:15;38.55;;;16.40;;
77220;SDS011;66217;50.004;8.266;2022-12-19T00:19:40;37.08;;;16.13;;
77220;SDS011;66217;50.004;8.266;2022-12-19T00:22:06;42.42;;;17.38;;
77220;SDS011;66217;50.004;8.266;2022-12-19T00:24:31;36.35;;;15.93;;
77220;SDS011;66217;50.004;8.266;2022-12-19T00:26:57;41.55;;;19.75;;
77220;SDS011;66217;50.004;8.266;2022-12-19T00:29:22;40.83;;;17.00;;
77220;SDS011;66217;50.004;8.266;2022-12-19T00:31:49;42.15;;;17.15;;
77220;SDS011;66217;50.004;8.266;2022-12-19T00:34:14;42.03;;;17.25;;
77220;SDS011;66217;50.004;8.266;2022-12-19T00:36:40;44.53;;;18.67;;
77220;SDS011;66217;50.004;8.266;2022-12-19T00:39:05;42.28;;;19.13;;
77220;SDS011;66217;50.004;8.266;2022-12-19T00:41:32;38.22;;;18.58;;
77220;SDS011;66217;50.004;8.266;2022-12-19T00:43:59;42.13;;;17.58;;
77220;SDS011;66217;50.004;8.266;2022-12-19T00:46:26;45.95;;;17.52;;
77220;SDS011;66217;50.004;8.266;2022-12-19T00:48:52;44.20;;;18.05;;
77220;SDS011;66217;50.004;8.266;2022-12-19T00:51:19;42.97;;;16.63;;
77220;SDS011;66217;50.004;8.266;2022-12-19T00:53:47;44.08;;;17.48;;
77220;SDS011;66217;50.004;8.266;2022-12-19T00:56:17;41.97;;;18.00;;
77220;SDS011;66217;50.004;8.266;2022-12-19T00:58:44;40.08;;;18.02;;
77220;SDS011;66217;50.004;8.266;2022-12-19T01:01:14;44.90;;;15.75;;
77220;SDS011;66217;50.004;8.266;2022-12-19T01:06:06;37.87;;;15.07;;
77220;SDS011;66217;50.004;8.266;2022-12-19T01:08:32;42.30;;;16.85;;
77220;SDS011;66217;50.004;8.266;2022-12-19T01:10:57;41.05;;;16.45;;
77220;SDS011;66217;50.004;8.266;2022-12-19T01:13:24;46.70;;;18.33;;
77220;SDS011;66217;50.004;8.266;2022-12-19T01:15:50;35.75;;;15.77;;
77220;SDS011;66217;50.004;8.266;2022-12-19T01:18:15;41.92;;;17.05;;
77220;SDS011;66217;50.004;8.266;2022-12-19T01:20:41;44.45;;;18.77;;
77220;SDS011;66217;50.004;8.266;2022-12-19T01:23:09;37.25;;;16.98;;
77220;SDS011;66217;50.004;8.266;2022-12-19T01:25:36;46.33;;;19.45;;
77220;SDS011;66217;50.004;8.266;2022-12-19T01:28:03;45.78;;;16.60;;
77220;SDS011;66217;50.004;8.266;2022-12-19T01:30:30;44.08;;;18.15;;
77220;SDS011;66217;50.004;8.266;2022-12-19T01:32:56;42.80;;;16.38;;
77220;SDS011;66217;50.004;8.266;2022-12-19T01:35:21;47.33;;;18.00;;
77220;SDS011;66217;50.004;8.266;2022-12-19T01:37:47;44.40;;;18.52;;
77220;SDS011;66217;50.004;8.266;2022-12-19T01:40:14;44.35;;;18.67;;
77220;SDS011;66217;50.004;8.266;2022-12-19T01:42:40;41.08;;;17.17;;
77220;SDS011;66217;50.004;8.266;2022-12-19T01:47:39;34.97;;;16.20;;
77220;SDS011;66217;50.004;8.266;2022-12-19T01:50:12;43.72;;;19.20;;
77220;SDS011;66217;50.004;8.266;2022-12-19T01:52:40;37.97;;;16.25;;
77220;SDS011;66217;50.004;8.266;2022-12-19T01:55:06;42.83;;;18.42;;
77220;SDS011;66217;50.004;8.266;2022-12-19T01:57:31;41.63;;;16.73;;
77220;SDS011;66217;50.004;8.266;2022-12-19T01:59:57;39.78;;;16.27;;
77220;SDS011;66217;50.004;8.266;2022-12-19T02:02:28;40.85;;;18.08;;
77220;SDS011;66217;50.004;8.266;2022-12-19T02:04:57;44.53;;;17.85;;
77220;SDS011;66217;50.004;8.266;2022-12-19T02:07:26;41.13;;;18.15;;
77220;SDS011;66217;50.004;8.266;2022-12-19T02:09:53;50.42;;;19.67;;
77220;SDS011;66217;50.004;8.266;2022-12-19T02:12:23;42.25;;;16.00;;
77220;SDS011;66217;50.004;8.266;2022-12-19T02:14:50;42.08;;;17.05;;
77220;SDS011;66217;50.004;8.266;2022-12-19T02:17:24;42.78;;;18.50;;
77220;SDS011;66217;50.004;8.266;2022-12-19T02:30:32;43.92;;;18.33;;
77220;SDS011;66217;50.004;8.266;2022-12-19T02:33:11;39.90;;;17.98;;
77220;SDS011;66217;50.004;8.266;2022-12-19T02:35:40;41.05;;;17.13;;
77220;SDS011;66217;50.004;8.266;2022-12-19T02:38:26;45.38;;;17.83;;
77220;SDS011;66217;50.004;8.266;2022-12-19T02:43:21;35.53;;;15.65;;
77220;SDS011;66217;50.004;8.266;2022-12-19T02:45:49;41.13;;;17.08;;
77220;SDS011;66217;50.004;8.266;2022-12-19T02:48:15;46.15;;;18.80;;
77220;SDS011;66217;50.004;8.266;2022-12-19T02:50:43;38.88;;;16.92;;
77220;SDS011;66217;50.004;8.266;2022-12-19T02:53:10;43.25;;;18.30;;
77220;SDS011;66217;50.004;8.266;2022-12-19T02:55:41;39.85;;;17.27;;
77220;SDS011;66217;50.004;8.266;2022-12-19T03:06:52;33.50;;;15.35;;
77220;SDS011;66217;50.004;8.266;2022-12-19T03:09:30;38.92;;;16.25;;
77220;SDS011;66217;50.004;8.266;2022-12-19T03:12:03;42.63;;;18.02;;
77220;SDS011;66217;50.004;8.266;2022-12-19T03:14:31;43.55;;;18.77;;
77220;SDS011;66217;50.004;8.266;2022-12-19T03:17:01;42.63;;;16.60;;
77220;SDS011;66217;50.004;8.266;2022-12-19T03:19:29;47.05;;;18.27;;
77220;SDS011;66217;50.004;8.266;2022-12-19T03:21:55;40.15;;;18.30;;
77220;SDS011;66217;50.004;8.266;2022-12-19T03:24:21;44.72;;;18.15;;
77220;SDS011;66217;50.004;8.266;2022-12-19T03:26:48;43.33;;;17.40;;
77220;SDS011;66217;50.004;8.266;2022-12-19T03:29:18;42.58;;;17.60;;
77220;SDS011;66217;50.004;8.266;2022-12-19T03:31:47;42.85;;;16.25;;
77220;SDS011;66217;50.004;8.266;2022-12-19T03:34:20;37.55;;;17.77;;
77220;SDS011;66217;50.004;8.266;2022-12-19T03:36:54;42.63;;;18.17;;
77220;SDS011;66217;50.004;8.266;2022-12-19T03:39:21;43.53;;;17.48;;
77220;SDS011;66217;50.004;8.266;2022-12-19T03:41:47;41.88;;;18.27;;
77220;SDS011;66217;50.004;8.266;2022-12-19T03:44:32;41.03;;;17.05;;
77220;SDS011;66217;50.004;8.266;2022-12-19T03:47:02;37.63;;;17.27;;
77220;SDS011;66217;50.004;8.266;2022-12-19T03:49:33;40.22;;;18.55;;
77220;SDS011;66217;50.004;8.266;2022-12-19T03:52:00;42.53;;;17.02;;
77220;SDS011;66217;50.004;8.266;2022-12-19T03:54:32;47.28;;;16.80;;
77220;SDS011;66217;50.004;8.266;2022-12-19T03:59:43;39.70;;;17.60;;
77220;SDS011;66217;50.004;8.266;2022-12-19T04:02:12;47.33;;;17.50;;
77220;SDS011;66217;50.004;8.266;2022-12-19T04:04:39;45.67;;;18.17;;
77220;SDS011;66217;50.004;8.266;2022-12-19T04:07:06;43.30;;;19.08;;
77220;SDS011;66217;50.004;8.266;2022-12-19T04:09:33;44.33;;;17.73;;
77220;SDS011;66217;50.004;8.266;2022-12-19T04:12:00;37.13;;;16.48;;
77220;SDS011;66217;50.004;8.266;2022-12-19T04:14:29;48.38;;;18.85;;
77220;SDS011;66217;50.004;8.266;2022-12-19T04:19:27;47.67;;;20.17;;
77220;SDS011;66217;50.004;8.266;2022-12-19T04:22:02;39.95;;;17.27;;
77220;SDS011;66217;50.004;8.266;2022-12-19T04:24:32;41.83;;;18.75;;
77220;SDS011;66217;50.004;8.266;2022-12-19T04:26:58;44.30;;;17.38;;
77220;SDS011;66217;50.004;8.266;2022-12-19T04:29:26;44.63;;;18.08;;
77220;SDS011;66217;50.004;8.266;2022-12-19T04:31:53;48.28;;;18.45;;
77220;SDS011;66217;50.004;8.266;2022-12-19T04:34:19;39.50;;;17.75;;
77220;SDS011;66217;50.004;8.266;2022-12-19T04:36:46;43.75;;;18.90;;
77220;SDS011;66217;50.004;8.266;2022-12-19T04:39:12;44.65;;;18.15;;
77220;SDS011;66217;50.004;8.266;2022-12-19T04:41:37;45.33;;;18.02;;
77220;SDS011;66217;50.004;8.266;2022-12-19T04:44:03;44.08;;;19.90;;
77220;SDS011;66217;50.004;8.266;2022-12-19T04:46:29;48.53;;;18.23;;
77220;SDS011;66217;50.004;8.266;2022-12-19T04:48:54;48.38;;;17.88;;
77220;SDS011;66217;50.004;8.266;2022-12-19T04:51:19;43.55;;;17.35;;
77220;SDS011;66217;50.004;8.266;2022-12-19T04:53:45;41.65;;;18.73;;
77220;SDS011;66217;50.004;8.266;2022-12-19T04:56:10;43.60;;;17.75;;
77220;SDS011;66217;50.004;8.266;2022-12-19T04:58:36;46.70;;;20.10;;
77220;SDS011;66217;50.004;8.266;2022-12-19T05:01:02;48.63;;;19.98;;
77220;SDS011;66217;50.004;8.266;2022-12-19T05:03:28;41.40;;;17.85;;
77220;SDS011;66217;50.004;8.266;2022-12-19T05:06:01;47.28;;;19.17;;
77220;SDS011;66217;50.004;8.266;2022-12-19T05:08:32;45.25;;;19.13;;
77220;SDS011;66217;50.004;8.266;2022-12-19T05:11:00;48.28;;;18.75;;
77220;SDS011;66217;50.004;8.266;2022-12-19T05:13:25;44.90;;;18.17;;
77220;SDS011;66217;50.004;8.266;2022-12-19T05:15:58;45.38;;;19.90;;
77220;SDS011;66217;50.004;8.266;2022-12-19T05:18:25;44.38;;;18.92;;
77220;SDS011;66217;50.004;8.266;2022-12-19T05:20:50;45.47;;;18.08;;
77220;SDS011;66217;50.004;8.266;2022-12-19T05:23:16;49.58;;;20.55;;
77220;SDS011;66217;50.004;8.266;2022-12-19T05:25:41;42.35;;;18.20;;
77220;SDS011;66217;50.004;8.266;2022-12-19T05:28:07;45.97;;;18.20;;
77220;SDS011;66217;50.004;8.266;2022-12-19T05:30:32;48.15;;;19.45;;
77220;SDS011;66217;50.004;8.266;2022-12-19T05:32:58;41.60;;;17.70;;
77220;SDS011;66217;50.004;8.266;2022-12-19T05:35:23;40.25;;;17.70;;
77220;SDS011;66217;50.004;8.266;2022-12-19T05:37:48;44.38;;;17.00;;
77220;SDS011;66217;50.004;8.266;2022-12-19T05:40:14;41.67;;;17.20;;
77220;SDS011;66217;50.004;8.266;2022-12-19T05:42:39;42.78;;;18.17;;
77220;SDS011;66217;50.004;8.266;2022-12-19T05:45:05;41.25;;;17.30;;
77220;SDS011;66217;50.004;8.266;2022-12-19T05:47:30;40.38;;;17.60;;
77220;SDS011;66217;50.004;8.266;2022-12-19T05:49:56;40.28;;;18.77;;
77220;SDS011;66217;50.004;8.266;2022-12-19T05:52:21;45.63;;;19.27;;
77220;SDS011;66217;50.004;8.266;2022-12-19T05:54:48;42.70;;;18.17;;
77220;SDS011;66217;50.004;8.266;2022-12-19T05:57:14;41.72;;;17.70;;
77220;SDS011;66217;50.004;8.266;2022-12-19T05:59:39;42.95;;;19.42;;
77220;SDS011;66217;50.004;8.266;2022-12-19T06:02:04;42.95;;;18.58;;
77220;SDS011;66217;50.004;8.266;2022-12-19T06:04:30;49.15;;;18.73;;
77220;SDS011;66217;50.004;8.266;2022-12-19T06:06:55;42.10;;;18.63;;
77220;SDS011;66217;50.004;8.266;2022-12-19T06:09:21;41.13;;;18.88;;
77220;SDS011;66217;50.004;8.266;2022-12-19T06:11:46;51.13;;;18.08;;
77220;SDS011;66217;50.004;8.266;2022-12-19T06:14:12;43.00;;;17.23;;
77220;SDS011;66217;50.004;8.266;2022-12-19T06:16:37;42.20;;;17.40;;
77220;SDS011;66217;50.004;8.266;2022-12-19T06:19:02;38.15;;;18.05;;
77220;SDS011;66217;50.004;8.266;2022-12-19T06:21:28;47.95;;;19.63;;
77220;SDS011;66217;50.004;8.266;2022-12-19T06:23:53;40.13;;;16.92;;
77220;SDS011;66217;50.004;8.266;2022-12-19T06:26:19;45.47;;;19.67;;
77220;SDS011;66217;50.004;8.266;2022-12-19T06:28:50;41.35;;;18.65;;
77220;SDS011;66217;50.004;8.266;2022-12-19T06:31:17;44.78;;;18.10;;
77220;SDS011;66217;50.004;8.266;2022-12-19T06:33:43;46.55;;;20.80;;
77220;SDS011;66217;50.004;8.266;2022-12-19T06:36:22;45.47;;;19.17;;
77220;SDS011;66217;50.004;8.266;2022-12-19T06:38:48;42.13;;;18.05;;
77220;SDS011;66217;50.004;8.266;2022-12-19T06:41:14;49.45;;;18.88;;
77220;SDS011;66217;50.004;8.266;2022-12-19T06:44:00;47.17;;;19.42;;
77220;SDS011;66217;50.004;8.266;2022-12-19T06:46:26;42.78;;;18.40;;
77220;SDS011;66217;50.004;8.266;2022-12-19T06:48:52;44.00;;;18.52;;
77220;SDS011;66217;50.004;8.266;2022-12-19T06:51:18;45.28;;;19.17;;
77220;SDS011;66217;50.004;8.266;2022-12-19T06:53:43;45.45;;;18.83;;
77220;SDS011;66217;50.004;8.266;2022-12-19T06:56:09;38.42;;;17.83;;
77220;SDS011;66217;50.004;8.266;2022-12-19T06:58:36;43.45;;;18.50;;
77220;SDS011;66217;50.004;8.266;2022-12-19T07:01:01;40.10;;;18.05;;
77220;SDS011;66217;50.004;8.266;2022-12-19T07:03:31;49.30;;;19.90;;
77220;SDS011;66217;50.004;8.266;2022-12-19T07:06:00;48.95;;;19.10;;
77220;SDS011;66217;50.004;8.266;2022-12-19T07:08:26;46.22;;;19.67;;
77220;SDS011;66217;50.004;8.266;2022-12-19T07:10:51;48.60;;;21.10;;
77220;SDS011;66217;50.004;8.266;2022-12-19T07:13:17;42.70;;;19.52;;
77220;SDS011;66217;50.004;8.266;2022-12-19T07:15:43;47.25;;;17.90;;
77220;SDS011;66217;50.004;8.266;2022-12-19T07:18:08;40.33;;;18.70;;
77220;SDS011;66217;50.004;8.266;2022-12-19T07:20:35;44.78;;;18.90;;
77220;SDS011;66217;50.004;8.266;2022-12-19T07:23:01;45.75;;;18.13;;
77220;SDS011;66217;50.004;8.266;2022-12-19T07:25:28;42.40;;;18.73;;
77220;SDS011;66217;50.004;8.266;2022-12-19T07:27:53;46.95;;;19.05;;
77220;SDS011;66217;50.004;8.266;2022-12-19T07:30:19;43.53;;;19.83;;
77220;SDS011;66217;50.004;8.266;2022-12-19T07:32:45;41.75;;;18.05;;
77220;SDS011;66217;50.004;8.266;2022-12-19T07:35:10;45.40;;;19.48;;
77220;SDS011;66217;50.004;8.266;2022-12-19T07:37:35;47.28;;;18.73;;
77220;SDS011;66217;50.004;8.266;2022-12-19T07:40:01;52.50;;;19.55;;
77220;SDS011;66217;50.004;8.266;2022-12-19T07:42:27;47.78;;;18.98;;
77220;SDS011;66217;50.004;8.266;2022-12-19T07:44:53;39.80;;;18.88;;
77220;SDS011;66217;50.004;8.266;2022-12-19T07:47:18;45.03;;;19.50;;
77220;SDS011;66217;50.004;8.266;2022-12-19T07:49:44;49.95;;;19.27;;
77220;SDS011;66217;50.004;8.266;2022-12-19T07:52:09;45.78;;;19.65;;
77220;SDS011;66217;50.004;8.266;2022-12-19T07:54:35;49.72;;;19.30;;
77220;SDS011;66217;50.004;8.266;2022-12-19T07:57:00;40.72;;;18.45;;
77220;SDS011;66217;50.004;8.266;2022-12-19T07:59:26;39.10;;;19.40;;
77220;SDS011;66217;50.004;8.266;2022-12-19T08:01:51;43.63;;;19.13;;
77220;SDS011;66217;50.004;8.266;2022-12-19T08:04:17;48.13;;;19.27;;
77220;SDS011;66217;50.004;8.266;2022-12-19T08:06:42;40.30;;;19.42;;
77220;SDS011;66217;50.004;8.266;2022-12-19T08:09:08;51.67;;;21.10;;
77220;SDS011;66217;50.004;8.266;2022-12-19T08:11:34;45.58;;;18.27;;
77220;SDS011;66217;50.004;8.266;2022-12-19T08:13:59;47.42;;;18.85;;
77220;SDS011;66217;50.004;8.266;2022-12-19T08:16:25;43.83;;;16.88;;
77220;SDS011;66217;50.004;8.266;2022-12-19T08:18:52;39.20;;;17.80;;
77220;SDS011;66217;50.004;8.266;2022-12-19T08:21:17;44.30;;;18.13;;
77220;SDS011;66217;50.004;8.266;2022-12-19T08:23:43;49.67;;;20.42;;
77220;SDS011;66217;50.004;8.266;2022-12-19T08:26:11;43.10;;;17.63;;
77220;SDS011;66217;50.004;8.266;2022-12-19T08:28:41;45.83;;;19.60;;
77220;SDS011;66217;50.004;8.266;2022-12-19T08:31:08;44.95;;;18.60;;
77220;SDS011;66217;50.004;8.266;2022-12-19T08:33:38;37.35;;;19.38;;
77220;SDS011;66217;50.004;8.266;2022-12-19T08:36:04;41.58;;;18.27;;
77220;SDS011;66217;50.004;8.266;2022-12-19T08:38:30;43.35;;;18.80;;
77220;SDS011;66217;50.004;8.266;2022-12-19T08:40:56;47.70;;;20.48;;
77220;SDS011;66217;50.004;8.266;2022-12-19T08:43:21;42.72;;;18.58;;
77220;SDS011;66217;50.004;8.266;2022-12-19T08:45:47;45.65;;;19.67;;
77220;SDS011;66217;50.004;8.266;2022-12-19T08:48:13;49.60;;;18.77;;
77220;SDS011;66217;50.004;8.266;2022-12-19T08:50:39;51.15;;;19.50;;
77220;SDS011;66217;50.004;8.266;2022-12-19T08:53:04;44.28;;;16.98;;
77220;SDS011;66217;50.004;8.266;2022-12-19T08:55:29;48.35;;;18.15;;
77220;SDS011;66217;50.004;8.266;2022-12-19T08:57:55;38.45;;;18.10;;
77220;SDS011;66217;50.004;8.266;2022-12-19T09:00:20;42.25;;;18.05;;
77220;SDS011;66217;50.004;8.266;2022-12-19T09:02:46;46.90;;;19.60;;
77220;SDS011;66217;50.004;8.266;2022-12-19T09:05:11;48.17;;;19.17;;
77220;SDS011;66217;50.004;8.266;2022-12-19T09:07:37;50.13;;;18.65;;
77220;SDS011;66217;50.004;8.266;2022-12-19T09:10:03;46.55;;;19.20;;
77220;SDS011;66217;50.004;8.266;2022-12-19T09:12:29;46.08;;;19.15;;
77220;SDS011;66217;50.004;8.266;2022-12-19T09:14:55;48.17;;;20.33;;
77220;SDS011;66217;50.004;8.266;2022-12-19T09:17:20;48.40;;;19.13;;
77220;SDS011;66217;50.004;8.266;2022-12-19T09:19:46;46.50;;;20.02;;
77220;SDS011;66217;50.004;8.266;2022-12-19T09:22:11;47.95;;;19.98;;
77220;SDS011;66217;50.004;8.266;2022-12-19T09:24:37;42.30;;;20.45;;
77220;SDS011;66217;50.004;8.266;2022-12-19T09:27:02;39.58;;;17.80;;
77220;SDS011;66217;50.004;8.266;2022-12-19T09:29:27;47.40;;;17.77;;
77220;SDS011;66217;50.004;8.266;2022-12-19T09:31:53;40.40;;;17.50;;
77220;SDS011;66217;50.004;8.266;2022-12-19T09:34:18;47.58;;;20.33;;
77220;SDS011;66217;50.004;8.266;2022-12-19T09:36:44;50.15;;;19.88;;
77220;SDS011;66217;50.004;8.266;2022-12-19T09:39:09;58.35;;;18.60;;
77220;SDS011;66217;50.004;8.266;2022-12-19T09:46:57;41.88;;;18.80;;
77220;SDS011;66217;50.004;8.266;2022-12-19T09:49:28;41.20;;;18.80;;
77220;SDS011;66217;50.004;8.266;2022-12-19T09:51:59;42.95;;;16.75;;
77220;SDS011;66217;50.004;8.266;2022-12-19T09:54:34;51.85;;;21.73;;
77220;SDS011;66217;50.004;8.266;2022-12-19T09:57:54;45.67;;;20.30;;
77220;SDS011;66217;50.004;8.266;2022-12-19T10:00:15;51.97;;;19.05;;
77220;SDS011;66217;50.004;8.266;2022-12-19T10:02:58;51.83;;;19.40;;
77220;SDS011;66217;50.004;8.266;2022-12-19T10:07:51;35.78;;;16.88;;
77220;SDS011;66217;50.004;8.266;2022-12-19T10:10:22;41.78;;;18.70;;
77220;SDS011;66217;50.004;8.266;2022-12-19T10:13:08;43.45;;;18.42;;
77220;SDS011;66217;50.004;8.266;2022-12-19T10:15:37;41.33;;;18.05;;
77220;SDS011;66217;50.004;8.266;2022-12-19T10:34:52;46.72;;;19.40;;
77220;SDS011;66217;50.004;8.266;2022-12-19T10:39:56;43.85;;;17.88;;
77220;SDS011;66217;50.004;8.266;2022-12-19T10:42:42;41.90;;;18.50;;
77220;SDS011;66217;50.004;8.266;2022-12-19T10:45:14;41.15;;;17.40;;
77220;SDS011;66217;50.004;8.266;2022-12-19T10:47:41;50.53;;;19.58;;
77220;SDS011;66217;50.004;8.266;2022-12-19T10:50:10;48.20;;;19.77;;
77220;SDS011;66217;50.004;8.266;2022-12-19T10:53:04;43.47;;;18.52;;
77220;SDS011;66217;50.004;8.266;2022-12-19T10:55:42;46.78;;;17.85;;
77220;SDS011;66217;50.004;8.266;2022-12-19T11:01:11;48.10;;;19.13;;
77220;SDS011;66217;50.004;8.266;2022-12-19T11:03:38;48.83;;;19.80;;
77220;SDS011;66217;50.004;8.266;2022-12-19T11:06:07;43.42;;;19.02;;
77220;SDS011;66217;50.004;8.266;2022-12-19T11:09:21;42.95;;;17.75;;
77220;SDS011;66217;50.004;8.266;2022-12-19T11:11:50;48.85;;;19.08;;
77220;SDS011;66217;50.004;8.266;2022-12-19T11:14:25;52.33;;;20.80;;
77220;SDS011;66217;50.004;8.266;2022-12-19T11:16:52;47.63;;;18.98;;
77220;SDS011;66217;50.004;8.266;2022-12-19T11:19:28;48.55;;;21.30;;
77220;SDS011;66217;50.004;8.266;2022-12-19T11:21:56;47.63;;;20.20;;
77220;SDS011;66217;50.004;8.266;2022-12-19T11:24:24;49.05;;;18.85;;
77220;SDS011;66217;50.004;8.266;2022-12-19T11:26:54;47.53;;;20.88;;
77220;SDS011;66217;50.004;8.266;2022-12-19T11:31:58;54.25;;;22.35;;
77220;SDS011;66217;50.004;8.266;2022-12-19T11:34:25;50.08;;;20.35;;
77220;SDS011;66217;50.004;8.266;2022-12-19T11:37:01;45.10;;;19.77;;
77220;SDS011;66217;50.004;8.266;2022-12-19T11:39:41;45.22;;;19.35;;
77220;SDS011;66217;50.004;8.266;2022-12-19T11:42:18;43.00;;;19.40;;
77220;SDS011;66217;50.004;8.266;2022-12-19T11:44:59;49.83;;;19.55;;
77220;SDS011;66217;50.004;8.266;2022-12-19T11:47:39;46.75;;;20.08;;
77220;SDS011;66217;50.004;8.266;2022-12-19T11:50:12;45.10;;;19.75;;
77220;SDS011;66217;50.004;8.266;2022-12-19T11:52:47;43.10;;;20.48;;
77220;SDS011;66217;50.004;8.266;2022-12-19T11:55:19;43.78;;;19.20;;
77220;SDS011;66217;50.004;8.266;2022-12-19T11:57:47;51.10;;;21.52;;
77220;SDS011;66217;50.004;8.266;2022-12-19T12:00:19;51.30;;;19.08;;
77220;SDS011;66217;50.004;8.266;2022-12-19T12:05:47;48.55;;;19.60;;
77220;SDS011;66217;50.004;8.266;2022-12-19T12:16:09;48.38;;;19.92;;
77220;SDS011;66217;50.004;8.266;2022-12-19T12:19:01;42.25;;;19.90;;
77220;SDS011;66217;50.004;8.266;2022-12-19T12:21:33;43.47;;;19.58;;
77220;SDS011;66217;50.004;8.266;2022-12-19T12:26:45;52.83;;;21.38;;
77220;SDS011;66217;50.004;8.266;2022-12-19T12:29:16;49.97;;;20.27;;
77220;SDS011;66217;50.004;8.266;2022-12-19T12:37:47;50.45;;;21.45;;
77220;SDS011;66217;50.004;8.266;2022-12-19T12:42:57;43.83;;;21.02;;
77220;SDS011;66217;50.004;8.266;2022-12-19T12:45:37;46.45;;;20.35;;
77220;SDS011;66217;50.004;8.266;2022-12-19T12:48:16;43.72;;;21.63;;
77220;SDS011;66217;50.004;8.266;2022-12-19T12:50:46;48.17;;;20.73;;
77220;SDS011;66217;50.004;8.266;2022-12-19T12:53:12;47.05;;;19.17;;
77220;SDS011;66217;50.004;8.266;2022-12-19T12:55:41;50.75;;;19.98;;
77220;SDS011;66217;50.004;8.266;2022-12-19T13:03:57;48.08;;;22.25;;
77220;SDS011;66217;50.004;8.266;2022-12-19T13:09:40;47.53;;;20.00;;
77220;SDS011;66217;50.004;8.266;2022-12-19T13:11:52;54.90;;;21.50;;
77220;SDS011;66217;50.004;8.266;2022-12-19T13:14:41;54.25;;;20.00;;
77220;SDS011;66217;50.004;8.266;2022-12-19T13:17:23;44.90;;;20.60;;
77220;SDS011;66217;50.004;8.266;2022-12-19T13:24:59;43.28;;;19.85;;
77220;SDS011;66217;50.004;8.266;2022-12-19T13:32:26;45.90;;;20.50;;
77220;SDS011;66217;50.004;8.266;2022-12-19T13:35:00;48.50;;;20.95;;
77220;SDS011;66217;50.004;8.266;2022-12-19T13:37:43;49.72;;;20.20;;
77220;SDS011;66217;50.004;8.266;2022-12-19T13:40:11;46.90;;;21.77;;
77220;SDS011;66217;50.004;8.266;2022-12-19T13:45:46;53.60;;;22.05;;
77220;SDS011;66217;50.004;8.266;2022-12-19T13:48:15;45.75;;;21.45;;
77220;SDS011;66217;50.004;8.266;2022-12-19T13:50:46;51.45;;;21.90;;
77220;SDS011;66217;50.004;8.266;2022-12-19T13:53:15;47.67;;;20.60;;
77220;SDS011;66217;50.004;8.266;2022-12-19T13:55:42;46.83;;;20.23;;
77220;SDS011;66217;50.004;8.266;2022-12-19T13:58:14;50.58;;;23.20;;
77220;SDS011;66217;50.004;8.266;2022-12-19T14:00:46;46.88;;;20.73;;
77220;SDS011;66217;50.004;8.266;2022-12-19T14:03:16;51.28;;;21.35;;
77220;SDS011;66217;50.004;8.266;2022-12-19T14:05:43;43.67;;;20.50;;
77220;SDS011;66217;50.004;8.266;2022-12-19T14:08:10;46.75;;;19.73;;
77220;SDS011;66217;50.004;8.266;2022-12-19T14:10:41;44.20;;;19.70;;
77220;SDS011;66217;50.004;8.266;2022-12-19T14:13:11;45.70;;;20.23;;
77220;SDS011;66217;50.004;8.266;2022-12-19T14:15:57;46.95;;;20.70;;
77220;SDS011;66217;50.004;8.266;2022-12-19T14:23:36;45.08;;;21.23;;
77220;SDS011;66217;50.004;8.266;2022-12-19T14:26:02;47.90;;;20.63;;
77220;SDS011;66217;50.004;8.266;2022-12-19T14:31:27;48.47;;;21.13;;
77220;SDS011;66217;50.004;8.266;2022-12-19T14:33:54;49.47;;;21.20;;
77220;SDS011;66217;50.004;8.266;2022-12-19T14:36:21;50.38;;;21.70;;
77220;SDS011;66217;50.004;8.266;2022-12-19T14:38:48;47.17;;;20.60;;
77220;SDS011;66217;50.004;8.266;2022-12-19T14:44:10;48.92;;;19.70;;
77220;SDS011;66217;50.004;8.266;2022-12-19T14:46:37;44.78;;;20.33;;
77220;SDS011;66217;50.004;8.266;2022-12-19T14:49:22;46.15;;;21.00;;
77220;SDS011;66217;50.004;8.266;2022-12-19T14:51:49;46.50;;;21.00;;
77220;SDS011;66217;50.004;8.266;2022-12-19T14:54:16;49.35;;;21.58;;
77220;SDS011;66217;50.004;8.266;2022-12-19T14:59:26;66.60;;;21.60;;
77220;SDS011;66217;50.004;8.266;2022-12-19T15:04:32;46.22;;;19.52;;
77220;SDS011;66217;50.004;8.266;2022-12-19T15:07:05;55.85;;;21.33;;
77220;SDS011;66217;50.004;8.266;2022-12-19T15:09:53;43.85;;;21.73;;
77220;SDS011;66217;50.004;8.266;2022-12-19T15:12:30;53.40;;;21.38;;
77220;SDS011;66217;50.004;8.266;2022-12-19T15:17:49;46.53;;;19.25;;
77220;SDS011;66217;50.004;8.266;2022-12-19T15:20:16;42.88;;;20.33;;
77220;SDS011;66217;50.004;8.266;2022-12-19T15:22:42;40.97;;;20.48;;
77220;SDS011;66217;50.004;8.266;2022-12-19T15:25:11;51.25;;;21.00;;
77220;SDS011;66217;50.004;8.266;2022-12-19T15:27:38;46.30;;;20.80;;
77220;SDS011;66217;50.004;8.266;2022-12-19T15:30:09;47.22;;;21.77;;
77220;SDS011;66217;50.004;8.266;2022-12-19T15:32:38;53.67;;;22.13;;
77220;SDS011;66217;50.004;8.266;2022-12-19T15:35:08;50.05;;;21.13;;
77220;SDS011;66217;50.004;8.266;2022-12-19T15:37:35;55.42;;;20.33;;
77220;SDS011;66217;50.004;8.266;2022-12-19T15:40:01;47.65;;;21.98;;
77220;SDS011;66217;50.004;8.266;2022-12-19T15:42:26;48.15;;;22.05;;
77220;SDS011;66217;50.004;8.266;2022-12-19T15:44:52;55.75;;;21.58;;
77220;SDS011;66217;50.004;8.266;2022-12-19T15:47:22;52.60;;;21.88;;
77220;SDS011;66217;50.004;8.266;2022-12-19T15:49:53;54.45;;;21.98;;
77220;SDS011;66217;50.004;8.266;2022-12-19T15:52:18;51.42;;;21.83;;
77220;SDS011;66217;50.004;8.266;2022-12-19T15:54:45;49.22;;;21.45;;
77220;SDS011;66217;50.004;8.266;2022-12-19T15:57:27;48.17;;;21.55;;
77220;SDS011;66217;50.004;8.266;2022-12-19T15:59:54;49.65;;;21.88;;
77220;SDS011;66217;50.004;8.266;2022-12-19T16:02:24;53.33;;;22.40;;
77220;SDS011;66217;50.004;8.266;2022-12-19T16:04:50;50.40;;;21.13;;
77220;SDS011;66217;50.004;8.266;2022-12-19T16:07:17;49.58;;;20.95;;
77220;SDS011;66217;50.004;8.266;2022-12-19T16:09:44;47.50;;;20.75;;
77220;SDS011;66217;50.004;8.266;2022-12-19T16:12:12;50.03;;;21.23;;
77220;SDS011;66217;50.004;8.266;2022-12-19T16:14:41;60.50;;;23.05;;
77220;SDS011;66217;50.004;8.266;2022-12-19T16:17:10;49.28;;;22.58;;
77220;SDS011;66217;50.004;8.266;2022-12-19T16:22:26;45.72;;;18.83;;
77220;SDS011;66217;50.004;8.266;2022-12-19T16:24:52;49.38;;;19.73;;
77220;SDS011;66217;50.004;8.266;2022-12-19T16:27:25;47.33;;;21.23;;
77220;SDS011;66217;50.004;8.266;2022-12-19T16:29:52;51.35;;;21.15;;
77220;SDS011;66217;50.004;8.266;2022-12-19T16:32:18;45.20;;;21.50;;
77220;SDS011;66217;50.004;8.266;2022-12-19T16:34:44;43.88;;;20.17;;
77220;SDS011;66217;50.004;8.266;2022-12-19T16:37:10;46.63;;;19.55;;
77220;SDS011;66217;50.004;8.266;2022-12-19T16:39:35;45.13;;;21.55;;